Time;durP1;ratioP1;P1;durP2;ratioP2;P2;SDS_P1;SDS_P2;PMS_P1;PMS_P2;Temp;Humidity;BMP_temperature;BMP_pressure;BME280_temperature;BME280_humidity;BME280_pressure;Samples;Min_cycle;Max_cycle;Signal;HPM_P1;HPM_P2
2023/09/14 00:01:13;;;;;;;18.80;17.00;;;;;;;19.17;100.00;98845.87;109529;1252;58953;-69
2023/09/14 00:03:39;;;;;;;18.70;17.10;;;;;;;19.16;100.00;98844.34;109589;1252;59025;-69
2023/09/14 00:06:06;;;;;;;18.30;16.70;;;;;;;19.16;100.00;98846.58;109605;1252;66112;-69
2023/09/14 00:08:33;;;;;;;20.00;18.00;;;;;;;19.14;100.00;98852.67;109554;1252;59011;-69
2023/09/14 00:11:03;;;;;;;19.10;17.30;;;;;;;19.12;100.00;98852.13;109552;1253;64104;-69
2023/09/14 00:13:30;;;;;;;19.20;17.50;;;;;;;19.12;100.00;98851.25;109535;1252;59019;-69
2023/09/14 00:15:56;;;;;;;20.20;18.20;;;;;;;19.14;100.00;98850.55;109575;1253;59052;-69
2023/09/14 00:18:23;;;;;;;24.80;22.80;;;;;;;19.14;100.00;98850.71;109539;1253;66040;-69
2023/09/14 00:20:52;;;;;;;26.00;23.80;;;;;;;19.12;100.00;98852.47;109523;1254;60093;-69
2023/09/14 00:23:20;;;;;;;23.90;21.70;;;;;;;19.11;100.00;98854.59;109574;1254;62492;-69
2023/09/14 00:25:48;;;;;;;19.50;17.70;;;;;;;19.11;100.00;98856.03;109523;1252;58936;-69
2023/09/14 00:28:15;;;;;;;20.90;19.10;;;;;;;19.11;100.00;98853.16;109364;1252;59018;-69
2023/09/14 00:30:41;;;;;;;25.30;23.10;;;;;;;19.11;100.00;98850.63;109560;1252;64629;-69
2023/09/14 00:33:08;;;;;;;26.70;24.30;;;;;;;19.11;100.00;98847.90;109541;1252;60083;-69
2023/09/14 00:35:34;;;;;;;23.60;21.60;;;;;;;19.11;100.00;98845.73;109406;1252;63887;-68
2023/09/14 00:38:01;;;;;;;24.70;22.50;;;;;;;19.10;100.00;98849.73;109489;1254;59204;-69
2023/09/14 00:40:28;;;;;;;24.80;22.60;;;;;;;19.07;100.00;98847.95;109556;1252;59075;-69
2023/09/14 00:42:55;;;;;;;23.20;21.20;;;;;;;19.05;100.00;98844.23;109200;1254;73752;-69
2023/09/14 00:45:22;;;;;;;22.30;20.20;;;;;;;19.01;100.00;98844.07;109568;1253;60187;-69
2023/09/14 00:47:50;;;;;;;20.30;18.50;;;;;;;18.97;100.00;98842.90;109501;1252;62896;-69
2023/09/14 00:50:19;;;;;;;17.60;16.00;;;;;;;18.95;100.00;98844.91;109515;1252;58954;-69
2023/09/14 00:53:00;;;;;;;16.70;15.20;;;;;;;18.94;100.00;98841.23;109573;1252;59052;-69
2023/09/14 00:55:28;;;;;;;18.40;16.80;;;;;;;18.92;100.00;98842.13;109541;1252;64614;-69
2023/09/14 00:57:58;;;;;;;16.60;15.20;;;;;;;18.93;100.00;98840.49;109544;1253;59052;-69
2023/09/14 01:00:25;;;;;;;;;;;;;;;18.92;100.00;98835.66;109477;1253;62839;-69
2023/09/14 01:02:54;;;;;;;17.50;15.70;;;;;;;18.91;100.00;98837.46;109516;1252;59285;-69
2023/09/14 01:05:22;;;;;;;19.10;17.30;;;;;;;18.90;100.00;98839.34;109566;1253;58979;-69
2023/09/14 01:07:49;;;;;;;18.60;16.80;;;;;;;18.89;100.00;98837.45;109574;1251;66028;-69
2023/09/14 01:10:15;;;;;;;18.10;16.50;;;;;;;18.89;100.00;98835.63;109245;1253;59886;-69
2023/09/14 01:12:46;;;;;;;18.70;16.80;;;;;;;18.89;100.00;98832.58;109555;1251;64068;-68
2023/09/14 01:15:20;;;;;;;16.40;14.70;;;;;;;18.88;100.00;98831.40;109550;1254;58941;-69
2023/09/14 01:18:21;;;;;;;16.80;15.40;;;;;;;18.85;100.00;98831.17;109540;1252;58840;-69
2023/09/14 01:21:24;;;;;;;15.90;14.50;;;;;;;18.84;100.00;98834.54;109573;1253;66228;-69
2023/09/14 01:24:20;;;;;;;17.10;15.50;;;;;;;18.82;100.00;98834.93;109528;1252;67934;-69
2023/09/14 01:26:47;;;;;;;15.30;14.00;;;;;;;18.82;100.00;98836.92;109567;1252;64063;-68
2023/09/14 01:29:13;;;;;;;15.40;13.90;;;;;;;18.82;100.00;98837.03;109468;1253;58956;-69
2023/09/14 01:31:41;;;;;;;15.00;13.60;;;;;;;18.83;100.00;98838.23;109553;1252;58937;-69
2023/09/14 01:34:08;;;;;;;14.30;13.10;;;;;;;18.83;100.00;98834.14;109537;1252;65805;-69
2023/09/14 01:36:53;;;;;;;15.50;13.90;;;;;;;18.82;100.00;98835.44;109529;1251;59083;-69
2023/09/14 01:39:21;;;;;;;15.80;14.20;;;;;;;18.82;100.00;98833.48;109516;1253;62811;-69
2023/09/14 01:41:54;;;;;;;15.50;14.10;;;;;;;18.83;100.00;98836.47;109573;1253;59159;-69
2023/09/14 01:44:25;;;;;;;15.40;13.90;;;;;;;18.83;100.00;98833.54;109569;1252;58937;-69
2023/09/14 01:46:51;;;;;;;14.70;13.40;;;;;;;18.83;100.00;98832.80;109268;1253;66047;-69
2023/09/14 01:49:18;;;;;;;15.10;13.60;;;;;;;18.82;100.00;98836.66;109601;1251;59048;-69
2023/09/14 01:51:44;;;;;;;16.80;15.20;;;;;;;18.82;100.00;98840.00;109450;1254;64114;-69
2023/09/14 01:54:11;;;;;;;15.60;14.20;;;;;;;18.80;100.00;98840.30;109474;1253;59090;-69
2023/09/14 01:56:38;;;;;;;16.40;14.80;;;;;;;18.79;100.00;98842.98;109586;1253;59063;-69
2023/09/14 01:59:04;;;;;;;16.30;14.80;;;;;;;18.77;100.00;98844.23;109519;1252;64736;-69
2023/09/14 02:01:31;;;;;;;16.30;14.90;;;;;;;18.76;100.00;98847.19;109574;1252;60228;-69
2023/09/14 02:03:57;;;;;;;15.30;14.00;;;;;;;18.77;100.00;98846.27;109524;1253;62868;-69
2023/09/14 02:06:24;;;;;;;16.50;14.80;;;;;;;18.76;100.00;98848.84;109544;1252;58931;-69
2023/09/14 02:08:50;;;;;;;17.50;15.70;;;;;;;18.75;100.00;98852.92;109549;1253;59063;-68
2023/09/14 02:11:17;;;;;;;25.20;22.80;;;;;;;18.75;100.00;98853.66;109543;1253;66026;-68
2023/09/14 02:13:43;;;;;;;33.70;30.30;;;;;;;18.74;100.00;98855.15;109522;1252;59035;-69
2023/09/14 02:16:10;;;;;;;24.30;21.80;;;;;;;18.74;100.00;98857.36;109538;1252;63998;-69
2023/09/14 02:18:36;;;;;;;19.30;17.50;;;;;;;18.72;100.00;98857.73;109549;1252;60046;-70
2023/09/14 02:21:03;;;;;;;18.10;16.40;;;;;;;18.68;100.00;98859.08;109622;1253;58978;-69
2023/09/14 02:23:30;;;;;;;16.40;15.00;;;;;;;18.65;100.00;98864.55;109509;1254;66026;-69
2023/09/14 02:25:56;;;;;;;14.80;13.50;;;;;;;18.64;100.00;98865.49;109240;1254;60132;-69
2023/09/14 02:28:23;;;;;;;13.90;12.70;;;;;;;18.62;100.00;98863.17;109524;1252;59120;-69
2023/09/14 02:30:49;;;;;;;12.70;11.60;;;;;;;18.61;100.00;98866.40;109543;1253;59411;-70
2023/09/14 02:33:16;;;;;;;14.10;12.80;;;;;;;18.60;100.00;98869.41;109640;1252;59037;-69
2023/09/14 02:35:50;;;;;;;15.10;13.80;;;;;;;18.58;100.00;98867.55;109556;1255;64498;-69
2023/09/14 02:38:18;;;;;;;13.80;12.50;;;;;;;18.58;100.00;98867.37;109559;1252;59845;-69
2023/09/14 02:40:44;;;;;;;15.60;12.60;;;;;;;18.56;100.00;98864.59;109542;1254;64069;-69
2023/09/14 02:43:11;;;;;;;13.90;12.80;;;;;;;18.55;100.00;98862.48;109526;1256;59016;-69
2023/09/14 02:45:37;;;;;;;13.90;12.80;;;;;;;18.56;100.00;98864.92;109208;1252;59028;-69
2023/09/14 02:48:04;;;;;;;14.30;12.90;;;;;;;18.56;100.00;98870.32;109571;1252;66045;-69
2023/09/14 02:50:31;;;;;;;15.10;13.80;;;;;;;18.55;100.00;98873.97;109618;1253;59236;-69
2023/09/14 02:52:58;;;;;;;14.30;13.10;;;;;;;18.55;100.00;98870.02;109496;1254;63724;-69
2023/09/14 02:55:24;;;;;;;14.00;12.70;;;;;;;18.55;100.00;98869.88;109484;1254;58966;-69
2023/09/14 02:57:51;;;;;;;14.10;12.80;;;;;;;18.52;100.00;98870.36;109615;1253;59025;-69
2023/09/14 03:00:18;;;;;;;14.60;13.30;;;;;;;18.50;100.00;98873.14;109516;1254;66051;-69
2023/09/14 03:02:45;;;;;;;15.40;14.10;;;;;;;18.46;100.00;98875.27;109555;1254;59816;-69
2023/09/14 03:05:11;;;;;;;14.80;13.40;;;;;;;18.45;100.00;98876.13;109262;1253;64685;-69
2023/09/14 03:07:38;;;;;;;15.10;13.60;;;;;;;18.44;100.00;98881.60;109583;1252;59259;-69
2023/09/14 03:10:06;;;;;;;14.60;13.40;;;;;;;18.42;100.00;98881.74;109411;1257;59036;-69
2023/09/14 03:12:33;;;;;;;14.30;13.00;;;;;;;18.42;100.00;98888.48;109355;1254;66094;-69
2023/09/14 03:14:59;;;;;;;15.60;14.20;;;;;;;18.40;100.00;98892.14;109277;1253;59106;-68
2023/09/14 03:17:26;;;;;;;15.60;14.20;;;;;;;18.36;100.00;98895.52;109546;1253;64066;-68
2023/09/14 03:19:53;;;;;;;15.20;13.80;;;;;;;18.33;100.00;98898.90;109504;1252;59053;-68
2023/09/14 03:22:19;;;;;;;14.90;13.60;;;;;;;18.30;100.00;98899.74;109522;1254;58962;-68
2023/09/14 03:24:46;;;;;;;15.30;13.90;;;;;;;18.29;100.00;98902.02;109571;1253;59587;-68
2023/09/14 03:27:12;;;;;;;15.40;14.10;;;;;;;18.27;100.00;98901.66;109539;1252;59254;-68
2023/09/14 03:29:39;;;;;;;13.80;12.60;;;;;;;18.26;100.00;98903.95;109542;1254;62484;-68
2023/09/14 03:32:05;;;;;;;14.50;13.20;;;;;;;18.25;100.00;98903.72;109489;1254;58995;-68
2023/09/14 03:34:32;;;;;;;13.10;11.90;;;;;;;18.26;100.00;98903.63;109547;1252;59164;-68
2023/09/14 03:36:59;;;;;;;13.20;11.90;;;;;;;18.26;100.00;98906.24;109531;1253;64844;-68
2023/09/14 03:39:25;;;;;;;14.30;13.10;;;;;;;18.27;100.00;98908.12;109553;1254;58951;-68
2023/09/14 03:41:52;;;;;;;14.60;13.40;;;;;;;18.28;100.00;98910.45;109559;1251;59042;-68
2023/09/14 03:44:19;;;;;;;13.80;12.50;;;;;;;18.27;100.00;98914.86;109535;1253;58974;-68
2023/09/14 03:46:45;;;;;;;14.30;13.10;;;;;;;18.25;100.00;98911.78;109501;1253;58945;-68
2023/09/14 03:49:12;;;;;;;13.60;12.40;;;;;;;18.25;100.00;98914.30;109554;1254;64891;-68
2023/09/14 03:51:38;;;;;;;13.30;12.00;;;;;;;18.27;100.00;98918.10;109254;1254;58986;-68
2023/09/14 03:54:05;;;;;;;14.00;12.60;;;;;;;18.27;100.00;98921.16;109536;1254;63923;-68
2023/09/14 03:56:32;;;;;;;14.20;12.90;;;;;;;18.25;100.00;98922.90;109545;1252;59103;-68
2023/09/14 03:58:58;;;;;;;16.40;14.80;;;;;;;18.27;100.00;98928.30;109568;1253;59039;-68
2023/09/14 04:01:25;;;;;;;15.00;13.80;;;;;;;18.27;100.00;98929.21;109557;1252;66065;-69
2023/09/14 04:03:51;;;;;;;14.00;12.80;;;;;;;18.28;100.00;98934.73;109559;1253;60299;-68
2023/09/14 04:06:18;;;;;;;14.60;13.40;;;;;;;18.28;100.00;98933.76;109562;1253;64113;-67
2023/09/14 04:08:44;;;;;;;13.70;12.50;;;;;;;18.29;100.00;98936.16;109174;1254;59067;-68
2023/09/14 04:11:11;;;;;;;13.80;12.60;;;;;;;18.30;100.00;98940.05;109535;1251;59041;-68
2023/09/14 04:13:38;;;;;;;14.90;13.60;;;;;;;18.30;100.00;98941.10;109374;1254;66063;-68
2023/09/14 04:16:05;;;;;;;14.30;13.00;;;;;;;18.31;100.00;98940.81;109560;1255;60308;-68
2023/09/14 04:18:34;;;;;;;13.80;12.50;;;;;;;18.31;100.00;98943.54;109576;1253;63744;-68
2023/09/14 04:21:02;;;;;;;13.30;12.10;;;;;;;18.30;100.00;98943.69;109583;1253;59417;-69
2023/09/14 04:23:29;;;;;;;13.30;12.00;;;;;;;18.29;100.00;98944.08;109546;1251;59062;-69
2023/09/14 04:25:55;;;;;;;12.00;11.00;;;;;;;18.30;100.00;98946.03;109376;1254;65764;-69
2023/09/14 04:28:22;;;;;;;12.50;11.40;;;;;;;18.30;100.00;98944.39;109598;1251;60240;-69
2023/09/14 04:30:52;;;;;;;13.30;12.10;;;;;;;18.29;100.00;98944.82;109542;1253;62941;-69
2023/09/14 04:33:19;;;;;;;13.30;12.00;;;;;;;18.28;100.00;98943.30;109521;1253;59251;-69
2023/09/14 04:35:46;;;;;;;13.60;12.40;;;;;;;18.28;100.00;98945.42;109547;1252;58962;-69
2023/09/14 04:38:13;;;;;;;12.70;11.60;;;;;;;18.30;100.00;98943.48;109519;1254;65823;-69
2023/09/14 04:40:42;;;;;;;12.70;11.50;;;;;;;18.32;100.00;98946.16;109467;1254;60410;-69
2023/09/14 04:43:09;;;;;;;13.20;12.10;;;;;;;18.31;100.00;98945.66;109515;1252;62828;-69
2023/09/14 04:45:36;;;;;;;14.20;12.80;;;;;;;18.33;100.00;98951.64;109287;1253;58996;-69
2023/09/14 04:48:03;;;;;;;13.00;11.80;;;;;;;18.35;100.00;98952.67;109590;1252;59609;-69
2023/09/14 04:50:30;;;;;;;13.30;12.10;;;;;;;18.38;100.00;98953.68;109569;1254;66070;-69
2023/09/14 04:52:57;;;;;;;13.10;11.90;;;;;;;18.39;100.00;98954.20;109540;1253;60169;-69
2023/09/14 04:55:24;;;;;;;13.00;11.80;;;;;;;18.39;100.00;98958.72;109524;1252;62623;-69
2023/09/14 04:57:51;;;;;;;15.60;14.20;;;;;;;18.39;100.00;98961.65;109541;1251;59046;-69
2023/09/14 05:00:18;;;;;;;15.70;14.10;;;;;;;18.40;100.00;98962.62;109564;1251;58860;-69
2023/09/14 05:02:45;;;;;;;16.70;15.30;;;;;;;18.41;100.00;98967.68;109503;1252;66018;-69
2023/09/14 05:05:11;;;;;;;17.30;15.80;;;;;;;18.43;100.00;98966.08;109527;1254;70059;-69
2023/09/14 05:07:39;;;;;;;16.80;15.20;;;;;;;18.46;100.00;98970.86;109539;1252;64156;-69
2023/09/14 05:10:08;;;;;;;18.10;16.30;;;;;;;18.48;100.00;98970.45;109571;1253;58948;-69
2023/09/14 05:12:34;;;;;;;18.60;17.10;;;;;;;18.52;100.00;98971.73;109572;1251;59099;-69
2023/09/14 05:15:02;;;;;;;18.70;16.90;;;;;;;18.56;100.00;98971.47;109569;1251;65702;-69
2023/09/14 05:17:29;;;;;;;17.20;15.70;;;;;;;18.59;100.00;98973.45;109548;1251;59820;-69
2023/09/14 05:19:55;;;;;;;16.70;15.10;;;;;;;18.63;100.00;98974.33;109337;1254;59069;-69
2023/09/14 05:22:25;;;;;;;16.80;15.00;;;;;;;18.65;100.00;98975.34;109581;1252;59355;-68
2023/09/14 05:24:52;;;;;;;17.10;15.50;;;;;;;18.68;100.00;98974.71;109539;1251;58973;-68
2023/09/14 05:27:19;;;;;;;17.50;16.00;;;;;;;18.71;100.00;98976.58;109622;1251;64789;-69
2023/09/14 05:29:46;;;;;;;17.40;15.80;;;;;;;18.73;100.00;98975.84;109568;1251;59844;-68
2023/09/14 05:32:12;;;;;;;19.20;17.50;;;;;;;18.73;100.00;98979.96;109543;1253;64114;-68
2023/09/14 05:34:39;;;;;;;19.90;18.10;;;;;;;18.73;100.00;98983.23;109563;1251;59010;-69
2023/09/14 05:37:05;;;;;;;20.90;19.10;;;;;;;18.71;100.00;98986.16;109401;1252;59147;-69
2023/09/14 05:39:32;;;;;;;19.30;17.60;;;;;;;18.70;100.00;98993.27;109554;1251;66039;-69
2023/09/14 05:41:59;;;;;;;20.50;18.60;;;;;;;18.71;100.00;98995.63;109548;1255;59032;-69
2023/09/14 05:44:25;;;;;;;19.30;17.60;;;;;;;18.73;100.00;99000.30;109573;1252;63793;-69
2023/09/14 05:46:52;;;;;;;19.40;17.50;;;;;;;18.75;100.00;99001.94;109506;1253;58989;-69
2023/09/14 05:49:18;;;;;;;19.00;16.80;;;;;;;18.75;100.00;99005.23;109558;1251;58819;-69
2023/09/14 05:51:45;;;;;;;18.90;17.20;;;;;;;18.74;100.00;99004.35;109545;1251;64823;-69
2023/09/14 05:54:12;;;;;;;19.00;17.20;;;;;;;18.74;100.00;99009.96;109528;1255;60119;-69
2023/09/14 05:56:38;;;;;;;19.60;17.80;;;;;;;18.75;100.00;99010.45;109519;1253;62847;-69
2023/09/14 05:59:05;;;;;;;19.60;17.70;;;;;;;18.77;100.00;99012.20;109503;1254;59463;-69
2023/09/14 06:01:31;;;;;;;18.10;16.60;;;;;;;18.81;100.00;99011.95;109391;1254;59082;-69
2023/09/14 06:03:58;;;;;;;18.30;16.60;;;;;;;18.85;100.00;99011.89;109549;1251;74631;-69
2023/09/14 06:06:24;;;;;;;17.80;16.00;;;;;;;18.89;100.00;99011.21;109554;1254;59090;-69
2023/09/14 06:08:51;;;;;;;18.00;16.40;;;;;;;18.87;100.00;99018.00;109570;1253;63757;-69
2023/09/14 06:11:17;;;;;;;16.90;15.40;;;;;;;18.86;100.00;99017.03;109600;1251;58933;-69
2023/09/14 06:13:44;;;;;;;17.50;16.00;;;;;;;18.91;100.00;99018.95;109282;1251;59031;-69
2023/09/14 06:16:11;;;;;;;15.70;14.40;;;;;;;18.97;100.00;99018.98;109624;1251;65868;-69
2023/09/14 06:18:37;;;;;;;17.90;16.20;;;;;;;19.06;100.00;99021.84;109616;1251;59020;-69
2023/09/14 06:21:04;;;;;;;17.30;15.70;;;;;;;19.14;100.00;99023.27;109641;1250;64060;-69
2023/09/14 06:23:30;;;;;;;18.70;16.90;;;;;;;19.23;100.00;99022.50;109615;1251;58928;-69
2023/09/14 06:25:57;;;;;;;16.30;14.80;;;;;;;19.26;100.00;99026.79;109639;1251;58971;-69
2023/09/14 06:28:24;;;;;;;19.90;18.20;;;;;;;19.24;100.00;99033.34;109612;1251;65786;-69
2023/09/14 06:30:50;;;;;;;20.50;18.90;;;;;;;19.16;100.00;99033.79;109631;1251;60291;-70
2023/09/14 06:33:17;;;;;;;19.00;17.40;;;;;;;19.08;100.00;99035.89;109600;1250;63769;-69
2023/09/14 06:35:43;;;;;;;14.90;13.60;;;;;;;19.01;100.00;99036.04;109269;1251;59077;-70
2023/09/14 06:38:10;;;;;;;12.80;11.60;;;;;;;18.98;100.00;99040.70;109597;1251;59303;-69
2023/09/14 06:40:36;;;;;;;11.20;10.20;;;;;;;18.97;100.00;99039.14;109600;1251;64634;-69
2023/09/14 06:43:04;;;;;;;9.10;8.30;;;;;;;18.96;100.00;99038.36;109648;1250;61309;-70
2023/09/14 06:45:33;;;;;;;8.80;8.00;;;;;;;18.93;100.00;99041.59;109617;1251;63748;-70
2023/09/14 06:48:00;;;;;;;9.00;8.30;;;;;;;18.92;100.00;99044.93;109531;1251;59079;-70
2023/09/14 06:50:26;;;;;;;8.80;8.10;;;;;;;18.90;100.00;99050.30;109592;1251;58881;-69
2023/09/14 06:52:53;;;;;;;8.70;7.80;;;;;;;18.89;100.00;99052.60;109548;1250;156374;-69
2023/09/14 06:55:20;;;;;;;8.20;7.50;;;;;;;18.92;100.00;99053.23;109645;1251;60227;-70
2023/09/14 06:57:46;;;;;;;8.20;7.50;;;;;;;18.91;100.00;99051.27;109253;1251;64286;-69
2023/09/14 07:00:20;;;;;;;7.60;7.00;;;;;;;18.87;100.00;99053.86;109599;1251;59015;-69
2023/09/14 07:02:48;;;;;;;8.00;6.90;;;;;;;18.83;100.00;99059.13;109644;1251;58962;-68
2023/09/14 07:05:15;;;;;;;6.70;6.20;;;;;;;18.80;100.00;99063.35;109610;1250;65799;-69
2023/09/14 07:07:44;;;;;;;6.90;6.30;;;;;;;18.80;100.00;99067.28;109562;1250;59972;-69
2023/09/14 07:10:11;;;;;;;6.60;5.90;;;;;;;18.85;100.00;99063.06;109603;1251;64046;-69
2023/09/14 07:12:37;;;;;;;6.30;5.80;;;;;;;18.98;100.00;99069.52;109612;1251;59053;-69
2023/09/14 07:15:04;;;;;;;7.10;6.40;;;;;;;19.09;100.00;99076.11;109641;1251;59092;-68
2023/09/14 07:17:31;;;;;;;6.40;5.90;;;;;;;19.15;100.00;99076.61;109646;1251;65855;-69
2023/09/14 07:19:58;;;;;;;7.00;5.90;;;;;;;19.24;100.00;99081.45;109588;1251;59847;-69
2023/09/14 07:22:24;;;;;;;7.70;6.90;;;;;;;19.31;100.00;99091.16;109618;1251;64070;-69
2023/09/14 07:24:51;;;;;;;7.30;6.60;;;;;;;19.37;100.00;99096.15;109625;1251;58981;-69
2023/09/14 07:27:17;;;;;;;7.30;6.60;;;;;;;19.41;100.00;99098.95;109618;1250;58955;-69
2023/09/14 07:29:44;;;;;;;6.90;6.20;;;;;;;19.42;100.00;99104.27;109640;1251;64823;-69
2023/09/14 07:32:10;;;;;;;7.70;6.80;;;;;;;19.42;100.00;99109.73;109614;1251;59003;-69
2023/09/14 07:34:37;;;;;;;7.10;6.50;;;;;;;19.42;100.00;99113.88;109666;1251;63971;-69
2023/09/14 07:37:04;;;;;;;6.70;6.10;;;;;;;19.39;100.00;99114.57;109588;1251;59139;-69
2023/09/14 07:39:31;;;;;;;7.70;6.90;;;;;;;19.39;100.00;99117.02;109607;1250;59002;-69
2023/09/14 07:41:57;;;;;;;6.80;6.20;;;;;;;19.42;100.00;99118.86;109638;1250;65920;-69
2023/09/14 07:44:24;;;;;;;7.00;6.30;;;;;;;19.50;100.00;99119.36;109635;1251;59842;-69
2023/09/14 07:46:50;;;;;;;8.00;6.40;;;;;;;19.62;100.00;99118.52;109606;1251;65414;-69
2023/09/14 07:49:17;;;;;;;6.90;6.30;;;;;;;19.72;100.00;99123.04;109611;1251;58985;-70
2023/09/14 07:51:43;;;;;;;7.60;6.40;;;;;;;19.74;100.00;99126.30;109617;1251;58943;-69
2023/09/14 07:54:10;;;;;;;7.90;7.10;;;;;;;19.72;100.00;99130.48;109604;1250;65757;-69
2023/09/14 07:56:37;;;;;;;7.70;7.00;;;;;;;19.71;100.00;99130.77;109619;1251;60187;-69
2023/09/14 07:59:03;;;;;;;8.30;6.90;;;;;;;19.68;100.00;99135.59;109531;1251;64023;-68
2023/09/14 08:01:30;;;;;;;7.90;7.10;;;;;;;19.72;100.00;99136.52;109559;1250;58938;-69
2023/09/14 08:03:56;;;;;;;7.90;7.10;;;;;;;19.79;100.00;99138.95;109628;1250;59039;-68
2023/09/14 08:06:24;;;;;;;7.60;6.80;;;;;;;19.83;100.00;99144.08;109600;1250;65858;-69
2023/09/14 08:08:53;;;;;;;7.90;6.50;;;;;;;19.89;100.00;99145.27;109384;1251;61389;-68
2023/09/14 08:11:20;;;;;;;7.80;6.90;;;;;;;19.96;100.00;99144.95;109364;1251;64068;-69
2023/09/14 08:13:46;;;;;;;6.80;6.10;;;;;;;20.02;100.00;99146.14;109412;1251;59101;-69
2023/09/14 08:16:13;;;;;;;7.90;7.10;;;;;;;20.05;100.00;99147.73;109608;1251;58866;-69
2023/09/14 08:18:39;;;;;;;7.30;6.70;;;;;;;20.13;100.00;99147.48;109625;1250;65755;-69
2023/09/14 08:21:06;;;;;;;7.10;6.40;;;;;;;20.16;100.00;99147.54;109415;1250;59043;-67
2023/09/14 08:23:33;;;;;;;7.20;6.50;;;;;;;20.18;100.00;99151.73;109515;1251;64076;-67
2023/09/14 08:25:59;;;;;;;6.70;6.10;;;;;;;20.15;100.00;99154.65;109286;1251;58950;-67
2023/09/14 08:28:26;;;;;;;7.90;6.30;;;;;;;20.12;100.00;99153.50;109579;1250;59179;-67
2023/09/14 08:30:52;;;;;;;7.20;6.60;;;;;;;20.14;100.00;99157.30;109625;1250;66093;-67
2023/09/14 08:33:20;;;;;;;9.50;5.70;;;;;;;20.27;100.00;99157.08;109571;1251;59806;-67
2023/09/14 08:35:46;;;;;;;7.30;5.90;;;;;;;20.45;100.00;99161.64;109590;1250;74069;-66
2023/09/14 08:38:13;;;;;;;6.70;6.10;;;;;;;20.58;100.00;99162.67;109586;1251;59033;-67
2023/09/14 08:40:41;;;;;;;6.90;6.20;;;;;;;20.69;100.00;99167.50;109604;1250;58857;-67
2023/09/14 08:43:14;;;;;;;7.00;6.40;;;;;;;20.78;100.00;99167.19;109606;1251;65770;-67
2023/09/14 08:45:41;;;;;;;7.00;6.40;;;;;;;20.89;100.00;99167.52;109608;1250;60177;-66
2023/09/14 08:48:09;;;;;;;7.60;6.50;;;;;;;20.97;100.00;99168.23;109575;1250;62650;-67
2023/09/14 08:50:39;;;;;;;9.10;7.20;;;;;;;20.95;100.00;99167.90;109415;1250;59117;-66
2023/09/14 08:53:06;;;;;;;7.20;6.60;;;;;;;20.88;100.00;99167.02;109628;1250;58983;-67
2023/09/14 08:55:34;;;;;;;6.80;6.20;;;;;;;20.75;100.00;99169.00;109621;1250;64910;-67
2023/09/14 08:58:02;;;;;;;7.60;6.70;;;;;;;20.59;100.00;99174.65;109643;1251;59585;-67
2023/09/14 09:00:30;;;;;;;7.20;6.60;;;;;;;20.47;100.00;99176.61;109184;1251;64895;-67
2023/09/14 09:02:57;;;;;;;8.50;6.00;;;;;;;20.44;100.00;99180.35;109610;1250;59048;-67
2023/09/14 09:05:25;;;;;;;6.40;5.80;;;;;;;20.46;100.00;99183.37;109611;1250;59002;-67
2023/09/14 09:07:54;;;;;;;7.00;6.30;;;;;;;20.45;100.00;99185.27;109592;1250;65713;-67
2023/09/14 09:10:26;;;;;;;6.80;6.20;;;;;;;20.48;100.00;99181.75;109665;1250;60251;-67
2023/09/14 09:12:58;;;;;;;6.30;5.80;;;;;;;20.55;100.00;99182.48;109305;1251;63749;-67
2023/09/14 09:15:26;;;;;;;8.40;6.60;;;;;;;20.56;100.00;99187.41;109568;1250;59020;-67
2023/09/14 09:18:06;;;;;;;6.20;5.70;;;;;;;20.53;100.00;99185.70;109555;1250;58877;-67
2023/09/14 09:20:34;;;;;;;6.40;5.80;;;;;;;20.49;100.00;99185.39;109624;1250;66862;-66
2023/09/14 09:23:01;;;;;;;7.30;6.70;;;;;;;20.41;100.00;99188.79;109599;1250;60125;-66
2023/09/14 09:25:42;;;;;;;6.10;5.70;;;;;;;20.34;100.00;99185.13;109539;1251;62888;-67
2023/09/14 09:28:08;;;;;;;7.30;5.90;;;;;;;20.24;100.00;99189.09;109377;1251;59041;-67
2023/09/14 09:30:35;;;;;;;7.40;6.60;;;;;;;20.14;100.00;99190.31;109634;1251;59108;-66
2023/09/14 09:33:03;;;;;;;6.80;6.20;;;;;;;20.12;100.00;99190.64;109534;1250;65734;-67
2023/09/14 09:35:31;;;;;;;8.80;5.70;;;;;;;20.18;100.00;99190.68;109603;1250;59811;-67
2023/09/14 09:38:00;;;;;;;7.40;6.10;;;;;;;20.25;100.00;99198.23;109579;1250;64059;-67
2023/09/14 09:40:32;;;;;;;6.30;5.80;;;;;;;20.41;100.00;99200.18;109601;1250;58962;-67
2023/09/14 09:43:03;;;;;;;6.90;6.30;;;;;;;20.63;100.00;99204.22;109636;1250;58959;-67
2023/09/14 09:45:30;;;;;;;6.70;6.10;;;;;;;20.81;100.00;99201.91;109655;1250;67057;-67
2023/09/14 09:48:00;;;;;;;7.20;6.60;;;;;;;21.04;100.00;99197.35;109655;1250;60154;-67
2023/09/14 09:50:28;;;;;;;6.70;6.10;;;;;;;21.29;100.00;99195.88;109636;1250;62643;-67
2023/09/14 09:52:54;;;;;;;6.30;5.70;;;;;;;21.47;100.00;99194.86;109639;1251;59004;-78
2023/09/14 09:55:25;;;;;;;6.00;5.50;;;;;;;21.56;100.00;99194.52;109633;1250;58998;-78
2023/09/14 09:57:54;;;;;;;6.30;5.70;;;;;;;21.64;100.00;99194.16;109601;1251;66114;-73
2023/09/14 10:00:26;;;;;;;7.20;6.50;;;;;;;21.67;100.00;99194.77;109569;1250;59206;-72
2023/09/14 10:02:54;;;;;;;6.80;6.20;;;;;;;21.73;100.00;99189.48;109065;1256;64069;-72
2023/09/14 10:05:28;;;;;;;6.40;5.90;;;;;;;21.83;100.00;99190.02;109222;1255;59229;-72
2023/09/14 10:07:59;;;;;;;6.60;6.10;;;;;;;21.91;100.00;99187.59;108935;1257;59005;-72
2023/09/14 10:10:28;;;;;;;6.50;5.90;;;;;;;22.00;100.00;99188.48;109161;1256;65770;-73
2023/09/14 10:12:56;;;;;;;6.20;5.70;;;;;;;22.05;100.00;99188.98;109201;1256;59101;-73
2023/09/14 10:15:26;;;;;;;5.90;5.30;;;;;;;22.07;100.00;99192.35;108946;1255;63027;-73
2023/09/14 10:17:57;;;;;;;6.00;5.50;;;;;;;22.07;100.00;99190.41;108931;1257;60019;-73
2023/09/14 10:20:25;;;;;;;6.00;5.50;;;;;;;22.10;100.00;99191.50;108975;1255;59204;-76
2023/09/14 10:22:52;;;;;;;5.20;4.70;;;;;;;22.09;100.00;99196.29;109220;1256;65756;-75
2023/09/14 10:25:21;;;;;;;5.90;5.40;;;;;;;21.98;100.00;99199.77;109207;1256;60273;-73
2023/09/14 10:27:48;;;;;;;5.30;4.90;;;;;;;21.93;100.00;99196.30;109209;1255;64298;-70
2023/09/14 10:30:17;;;;;;;6.20;5.60;;;;;;;21.92;100.00;99201.65;109143;1256;60385;-70
2023/09/14 10:33:05;;;;;;;4.90;4.60;;;;;;;21.81;100.00;99198.84;109172;1256;58980;-74
2023/09/14 10:35:33;;;;;;;5.10;4.70;;;;;;;21.72;100.00;99197.21;109295;1254;65330;-74
2023/09/14 10:38:03;;;;;;;4.70;4.30;;;;;;;21.70;100.00;99194.64;109307;1253;67886;-75
2023/09/14 10:40:30;;;;;;;4.60;4.20;;;;;;;21.73;100.00;99196.33;109336;1253;62708;-74
2023/09/14 10:42:56;;;;;;;4.30;4.00;;;;;;;21.69;100.00;99197.83;109320;1253;59600;-74
2023/09/14 10:45:25;;;;;;;4.30;4.00;;;;;;;21.61;100.00;99197.25;109357;1254;59085;-73
2023/09/14 10:47:53;;;;;;;4.10;3.80;;;;;;;21.53;100.00;99200.36;109356;1253;64774;-77
2023/09/14 10:50:21;;;;;;;4.60;4.20;;;;;;;21.54;100.00;99198.40;109399;1253;59989;-78
2023/09/14 10:52:48;;;;;;;4.60;3.90;;;;;;;21.60;100.00;99196.67;109398;1253;64045;-78
2023/09/14 10:55:15;;;;;;;4.90;3.90;;;;;;;21.72;100.00;99194.34;109405;1253;59131;-78
2023/09/14 10:57:41;;;;;;;3.90;3.60;;;;;;;21.80;100.00;99195.52;109378;1253;59183;-76
2023/09/14 11:00:29;;;;;;;3.80;3.50;;;;;;;21.87;100.00;99196.61;109347;1253;64747;-77
2023/09/14 11:02:57;;;;;;;3.60;3.30;;;;;;;21.80;100.00;99196.03;109356;1254;59081;-78
2023/09/14 11:05:26;;;;;;;5.40;3.70;;;;;;;21.69;100.00;99196.33;109071;1254;62854;-79
2023/09/14 11:08:00;;;;;;;4.70;4.30;;;;;;;21.75;100.00;99198.09;109339;1254;59424;-78
2023/09/14 11:10:28;;;;;;;3.80;3.50;;;;;;;21.80;100.00;99198.83;109374;1253;58995;-81